Hideaway Hills, Ohio
Current Conditions -  °F | °C
As of 2:53 PM on Saturday 27 Dec 2014 (Local Time) from KLHQ Reporting Station
Overcast Overcast  
Wind Chill: 55°   Ceiling: 4100
Heat Index: 55°   Visibility: 10mi
Dew Point: 36°   Wind: 10mph
Humidity: 49%   Direction: 210°SSW
Pressure: 30.1"   Gusts: NA
Location:  39.689°N, 82.4035°W
Report Text: KLHQ 271953Z AUTO 21009KT 10SM OVC041 13/02 A3010 RMK AO2 SLP196 T01280022
Loading
Personal Weather Stations






























Interactive Weather Map New forecast layout! Learn more

10-Day Weather Forecast

Advertisements
Track Severe Weather on mobile